sensor_id;sensor_type;location;lat;lon;timestamp;pressure;altitude;pressure_sealevel;temperature;humidity
13869;BME280;7004;48.206;16.402;2023-03-15T00:00:48;98786.19;;;8.60;49.65
13869;BME280;7004;48.206;16.402;2023-03-15T00:03:15;98793.47;;;8.57;49.61
13869;BME280;7004;48.206;16.402;2023-03-15T00:05:44;98801.38;;;8.57;50.06
13869;BME280;7004;48.206;16.402;2023-03-15T00:08:11;98809.50;;;8.53;50.68
13869;BME280;7004;48.206;16.402;2023-03-15T00:10:44;98808.81;;;8.37;50.66
13869;BME280;7004;48.206;16.402;2023-03-15T00:13:13;98820.13;;;8.52;50.58
13869;BME280;7004;48.206;16.402;2023-03-15T00:15:52;98820.22;;;8.50;51.27
13869;BME280;7004;48.206;16.402;2023-03-15T00:18:21;98819.00;;;8.56;51.08
13869;BME280;7004;48.206;16.402;2023-03-15T00:20:47;98815.50;;;8.43;50.97
13869;BME280;7004;48.206;16.402;2023-03-15T00:23:14;98818.53;;;8.37;51.63
13869;BME280;7004;48.206;16.402;2023-03-15T00:25:44;98813.91;;;8.53;50.80
13869;BME280;7004;48.206;16.402;2023-03-15T00:28:11;98825.19;;;8.68;51.07
13869;BME280;7004;48.206;16.402;2023-03-15T00:30:37;98820.22;;;8.63;50.69
13869;BME280;7004;48.206;16.402;2023-03-15T00:33:04;98827.19;;;8.51;51.69
13869;BME280;7004;48.206;16.402;2023-03-15T00:35:31;98831.19;;;8.44;51.89
13869;BME280;7004;48.206;16.402;2023-03-15T00:38:00;98830.72;;;8.38;51.08
13869;BME280;7004;48.206;16.402;2023-03-15T00:40:26;98827.94;;;8.41;51.55
13869;BME280;7004;48.206;16.402;2023-03-15T00:42:53;98835.72;;;8.42;51.32
13869;BME280;7004;48.206;16.402;2023-03-15T00:45:20;98833.53;;;8.62;51.19
13869;BME280;7004;48.206;16.402;2023-03-15T00:47:53;98841.72;;;8.44;51.52
13869;BME280;7004;48.206;16.402;2023-03-15T00:50:21;98836.38;;;8.46;51.57
13869;BME280;7004;48.206;16.402;2023-03-15T00:52:48;98840.91;;;8.44;51.64
13869;BME280;7004;48.206;16.402;2023-03-15T00:55:17;98829.81;;;8.64;51.08
13869;BME280;7004;48.206;16.402;2023-03-15T00:57:45;98839.53;;;8.51;51.70
13869;BME280;7004;48.206;16.402;2023-03-15T01:00:18;98849.03;;;8.53;51.95
13869;BME280;7004;48.206;16.402;2023-03-15T01:02:46;98847.53;;;8.49;51.29
13869;BME280;7004;48.206;16.402;2023-03-15T01:05:14;98849.69;;;8.17;52.38
13869;BME280;7004;48.206;16.402;2023-03-15T01:07:47;98849.28;;;8.36;52.31
13869;BME280;7004;48.206;16.402;2023-03-15T01:10:19;98859.56;;;8.53;51.86
13869;BME280;7004;48.206;16.402;2023-03-15T01:12:47;98863.91;;;8.27;52.54
13869;BME280;7004;48.206;16.402;2023-03-15T01:15:15;98877.03;;;8.42;51.67
13869;BME280;7004;48.206;16.402;2023-03-15T01:17:48;98876.94;;;8.56;51.50
13869;BME280;7004;48.206;16.402;2023-03-15T01:20:16;98888.50;;;8.41;53.33
13869;BME280;7004;48.206;16.402;2023-03-15T01:22:45;98902.81;;;7.97;58.90
13869;BME280;7004;48.206;16.402;2023-03-15T01:25:20;98902.75;;;7.30;68.96
13869;BME280;7004;48.206;16.402;2023-03-15T01:27:52;98899.38;;;7.55;69.93
13869;BME280;7004;48.206;16.402;2023-03-15T01:30:22;98905.84;;;7.08;73.47
13869;BME280;7004;48.206;16.402;2023-03-15T01:32:50;98914.66;;;7.35;71.83
13869;BME280;7004;48.206;16.402;2023-03-15T01:35:18;98912.81;;;7.09;72.50
13869;BME280;7004;48.206;16.402;2023-03-15T01:37:49;98921.41;;;7.39;71.00
13869;BME280;7004;48.206;16.402;2023-03-15T01:40:19;98917.28;;;7.35;70.54
13869;BME280;7004;48.206;16.402;2023-03-15T01:43:14;98925.31;;;6.91;72.26
13869;BME280;7004;48.206;16.402;2023-03-15T01:52:06;98945.66;;;6.87;70.79
13869;BME280;7004;48.206;16.402;2023-03-15T01:54:46;98950.53;;;7.08;70.38
13869;BME280;7004;48.206;16.402;2023-03-15T02:00:05;98959.03;;;6.68;70.31
13869;BME280;7004;48.206;16.402;2023-03-15T02:02:46;98963.59;;;6.50;70.55
13869;BME280;7004;48.206;16.402;2023-03-15T02:05:24;98966.47;;;6.31;71.57
13869;BME280;7004;48.206;16.402;2023-03-15T02:07:52;98967.09;;;6.21;71.45
13869;BME280;7004;48.206;16.402;2023-03-15T02:10:36;98972.38;;;6.05;72.21
13869;BME280;7004;48.206;16.402;2023-03-15T02:13:08;98970.44;;;6.39;70.88
13869;BME280;7004;48.206;16.402;2023-03-15T02:15:36;98977.47;;;6.22;71.84
13869;BME280;7004;48.206;16.402;2023-03-15T02:18:04;98981.72;;;5.93;72.47
13869;BME280;7004;48.206;16.402;2023-03-15T02:20:38;98984.69;;;6.19;72.03
13869;BME280;7004;48.206;16.402;2023-03-15T02:23:08;98988.00;;;5.90;72.71
13869;BME280;7004;48.206;16.402;2023-03-15T02:28:33;98979.53;;;5.85;72.93
13869;BME280;7004;48.206;16.402;2023-03-15T02:31:00;98978.72;;;5.69;73.39
13869;BME280;7004;48.206;16.402;2023-03-15T02:33:31;98988.06;;;5.73;73.43
13869;BME280;7004;48.206;16.402;2023-03-15T02:36:27;98979.91;;;5.79;73.57
13869;BME280;7004;48.206;16.402;2023-03-15T02:38:55;98980.13;;;5.90;72.33
13869;BME280;7004;48.206;16.402;2023-03-15T02:41:33;98984.03;;;6.15;72.34
13869;BME280;7004;48.206;16.402;2023-03-15T02:47:20;98964.13;;;6.11;71.95
13869;BME280;7004;48.206;16.402;2023-03-15T02:49:50;98964.00;;;5.98;73.07
13869;BME280;7004;48.206;16.402;2023-03-15T02:52:16;98963.88;;;5.68;73.06
13869;BME280;7004;48.206;16.402;2023-03-15T02:54:44;98971.59;;;6.03;72.19
13869;BME280;7004;48.206;16.402;2023-03-15T02:57:13;98970.44;;;5.61;73.34
13869;BME280;7004;48.206;16.402;2023-03-15T02:59:39;98974.41;;;5.84;72.41
13869;BME280;7004;48.206;16.402;2023-03-15T03:02:08;98973.22;;;5.58;72.38
13869;BME280;7004;48.206;16.402;2023-03-15T03:04:37;98990.97;;;5.53;72.65
13869;BME280;7004;48.206;16.402;2023-03-15T03:07:04;98989.63;;;5.77;71.85
13869;BME280;7004;48.206;16.402;2023-03-15T03:09:30;98989.88;;;5.57;71.64
13869;BME280;7004;48.206;16.402;2023-03-15T03:11:57;98991.81;;;5.85;70.46
13869;BME280;7004;48.206;16.402;2023-03-15T03:14:23;98994.53;;;5.99;70.14
13869;BME280;7004;48.206;16.402;2023-03-15T03:16:51;98997.66;;;5.42;71.21
13869;BME280;7004;48.206;16.402;2023-03-15T03:19:19;99005.31;;;5.30;71.74
13869;BME280;7004;48.206;16.402;2023-03-15T03:21:52;99001.38;;;5.21;70.38
13869;BME280;7004;48.206;16.402;2023-03-15T03:24:20;99012.44;;;5.43;70.28
13869;BME280;7004;48.206;16.402;2023-03-15T03:26:46;99006.38;;;5.25;69.90
13869;BME280;7004;48.206;16.402;2023-03-15T03:29:13;99024.06;;;5.22;69.33
13869;BME280;7004;48.206;16.402;2023-03-15T03:31:43;99019.78;;;5.03;70.27
13869;BME280;7004;48.206;16.402;2023-03-15T03:34:10;99023.00;;;5.09;69.05
13869;BME280;7004;48.206;16.402;2023-03-15T03:36:39;99015.81;;;5.12;68.11
13869;BME280;7004;48.206;16.402;2023-03-15T03:39:05;99018.84;;;5.04;68.03
13869;BME280;7004;48.206;16.402;2023-03-15T03:41:31;99020.28;;;5.28;66.52
13869;BME280;7004;48.206;16.402;2023-03-15T03:43:58;99021.72;;;5.33;66.64
13869;BME280;7004;48.206;16.402;2023-03-15T03:46:24;99025.25;;;5.16;66.63
13869;BME280;7004;48.206;16.402;2023-03-15T03:48:52;99029.31;;;5.04;66.05
13869;BME280;7004;48.206;16.402;2023-03-15T03:51:19;99038.53;;;4.96;65.93
13869;BME280;7004;48.206;16.402;2023-03-15T03:53:45;99047.34;;;5.11;65.58
13869;BME280;7004;48.206;16.402;2023-03-15T03:56:12;99050.91;;;5.10;65.28
13869;BME280;7004;48.206;16.402;2023-03-15T03:58:38;99048.03;;;5.14;64.76
13869;BME280;7004;48.206;16.402;2023-03-15T04:01:04;99037.66;;;4.95;65.30
13869;BME280;7004;48.206;16.402;2023-03-15T04:03:30;99038.34;;;4.99;65.04
13869;BME280;7004;48.206;16.402;2023-03-15T04:05:58;99036.19;;;5.07;64.70
13869;BME280;7004;48.206;16.402;2023-03-15T04:08:25;99040.19;;;4.97;63.90
13869;BME280;7004;48.206;16.402;2023-03-15T04:10:54;99046.88;;;5.02;63.33
13869;BME280;7004;48.206;16.402;2023-03-15T04:13:21;99050.72;;;5.13;63.48
13869;BME280;7004;48.206;16.402;2023-03-15T04:15:50;99055.91;;;4.97;62.11
13869;BME280;7004;48.206;16.402;2023-03-15T04:18:17;99061.53;;;4.89;62.31
13869;BME280;7004;48.206;16.402;2023-03-15T04:20:46;99066.31;;;4.81;61.64
13869;BME280;7004;48.206;16.402;2023-03-15T04:23:14;99068.94;;;4.81;60.54
13869;BME280;7004;48.206;16.402;2023-03-15T04:25:41;99069.00;;;4.97;60.20
13869;BME280;7004;48.206;16.402;2023-03-15T04:28:08;99084.81;;;4.78;60.19
13869;BME280;7004;48.206;16.402;2023-03-15T04:30:37;99092.03;;;4.73;59.45
13869;BME280;7004;48.206;16.402;2023-03-15T04:33:04;99095.19;;;4.79;58.71
13869;BME280;7004;48.206;16.402;2023-03-15T04:35:33;99103.69;;;4.67;58.63
13869;BME280;7004;48.206;16.402;2023-03-15T04:38:01;99098.69;;;4.80;58.42
13869;BME280;7004;48.206;16.402;2023-03-15T04:40:30;99102.66;;;5.04;57.91
13869;BME280;7004;48.206;16.402;2023-03-15T04:43:02;99113.59;;;4.60;58.54
13869;BME280;7004;48.206;16.402;2023-03-15T04:45:30;99111.31;;;5.07;58.14
13869;BME280;7004;48.206;16.402;2023-03-15T04:47:57;99111.03;;;4.42;58.70
13869;BME280;7004;48.206;16.402;2023-03-15T04:50:23;99115.41;;;4.58;57.95
13869;BME280;7004;48.206;16.402;2023-03-15T04:52:50;99109.06;;;4.81;57.92
13869;BME280;7004;48.206;16.402;2023-03-15T04:55:16;99124.38;;;4.72;57.80
13869;BME280;7004;48.206;16.402;2023-03-15T04:57:43;99119.31;;;4.86;57.97
13869;BME280;7004;48.206;16.402;2023-03-15T05:00:10;99128.38;;;4.79;58.32
13869;BME280;7004;48.206;16.402;2023-03-15T05:02:39;99128.34;;;4.62;58.24
13869;BME280;7004;48.206;16.402;2023-03-15T05:05:12;99140.53;;;4.63;59.17
13869;BME280;7004;48.206;16.402;2023-03-15T05:07:38;99147.19;;;4.51;58.83
13869;BME280;7004;48.206;16.402;2023-03-15T05:10:06;99145.09;;;4.40;59.38
13869;BME280;7004;48.206;16.402;2023-03-15T05:12:32;99151.97;;;4.43;59.07
13869;BME280;7004;48.206;16.402;2023-03-15T05:14:59;99151.69;;;4.66;58.62
13869;BME280;7004;48.206;16.402;2023-03-15T05:17:25;99151.16;;;4.59;57.83
13869;BME280;7004;48.206;16.402;2023-03-15T05:19:51;99150.19;;;4.79;57.66
13869;BME280;7004;48.206;16.402;2023-03-15T05:22:18;99153.78;;;4.77;57.29
13869;BME280;7004;48.206;16.402;2023-03-15T05:24:44;99154.41;;;4.82;57.78
13869;BME280;7004;48.206;16.402;2023-03-15T05:27:10;99153.59;;;4.45;57.95
13869;BME280;7004;48.206;16.402;2023-03-15T05:29:38;99156.88;;;4.68;57.05
13869;BME280;7004;48.206;16.402;2023-03-15T05:32:05;99160.69;;;4.60;57.77
13869;BME280;7004;48.206;16.402;2023-03-15T05:34:31;99166.50;;;4.85;57.22
13869;BME280;7004;48.206;16.402;2023-03-15T05:36:58;99170.22;;;4.80;57.24
13869;BME280;7004;48.206;16.402;2023-03-15T05:39:24;99167.13;;;4.90;56.93
13869;BME280;7004;48.206;16.402;2023-03-15T05:41:50;99169.84;;;4.88;56.99
13869;BME280;7004;48.206;16.402;2023-03-15T05:44:17;99172.31;;;4.55;57.31
13869;BME280;7004;48.206;16.402;2023-03-15T05:46:43;99168.47;;;4.98;56.31
13869;BME280;7004;48.206;16.402;2023-03-15T05:49:09;99171.72;;;4.31;56.81
13869;BME280;7004;48.206;16.402;2023-03-15T05:51:35;99182.72;;;5.10;55.60
13869;BME280;7004;48.206;16.402;2023-03-15T05:54:01;99189.19;;;4.86;55.43
13869;BME280;7004;48.206;16.402;2023-03-15T05:56:27;99203.16;;;4.48;56.44
13869;BME280;7004;48.206;16.402;2023-03-15T05:58:54;99207.25;;;4.54;56.01
13869;BME280;7004;48.206;16.402;2023-03-15T06:01:20;99215.81;;;4.57;56.06
13869;BME280;7004;48.206;16.402;2023-03-15T06:03:46;99216.09;;;4.51;55.97
13869;BME280;7004;48.206;16.402;2023-03-15T06:06:12;99217.16;;;4.85;54.34
13869;BME280;7004;48.206;16.402;2023-03-15T06:08:38;99227.34;;;4.72;55.05
13869;BME280;7004;48.206;16.402;2023-03-15T06:11:05;99233.66;;;4.68;54.74
13869;BME280;7004;48.206;16.402;2023-03-15T06:13:34;99239.59;;;4.53;54.34
13869;BME280;7004;48.206;16.402;2023-03-15T06:16:00;99240.56;;;4.69;54.25
13869;BME280;7004;48.206;16.402;2023-03-15T06:18:26;99239.56;;;4.72;54.07
13869;BME280;7004;48.206;16.402;2023-03-15T06:20:52;99248.16;;;4.75;54.13
13869;BME280;7004;48.206;16.402;2023-03-15T06:23:18;99244.69;;;4.37;54.35
13869;BME280;7004;48.206;16.402;2023-03-15T06:25:44;99256.28;;;4.50;53.64
13869;BME280;7004;48.206;16.402;2023-03-15T06:28:11;99263.03;;;4.75;53.58
13869;BME280;7004;48.206;16.402;2023-03-15T06:30:37;99260.59;;;4.70;53.32
13869;BME280;7004;48.206;16.402;2023-03-15T06:33:04;99260.88;;;4.83;53.22
13869;BME280;7004;48.206;16.402;2023-03-15T06:35:30;99267.13;;;5.17;52.70
13869;BME280;7004;48.206;16.402;2023-03-15T06:37:56;99273.47;;;4.56;53.60
13869;BME280;7004;48.206;16.402;2023-03-15T06:40:22;99278.44;;;4.62;53.46
13869;BME280;7004;48.206;16.402;2023-03-15T06:42:49;99270.81;;;4.57;53.49
13869;BME280;7004;48.206;16.402;2023-03-15T06:45:15;99280.53;;;4.92;52.35
13869;BME280;7004;48.206;16.402;2023-03-15T06:47:41;99290.84;;;4.77;52.78
13869;BME280;7004;48.206;16.402;2023-03-15T06:50:09;99288.91;;;4.81;52.49
13869;BME280;7004;48.206;16.402;2023-03-15T06:52:35;99291.50;;;5.00;51.72
13869;BME280;7004;48.206;16.402;2023-03-15T06:55:02;99301.78;;;4.86;51.80
13869;BME280;7004;48.206;16.402;2023-03-15T06:57:28;99304.16;;;4.90;51.45
13869;BME280;7004;48.206;16.402;2023-03-15T06:59:54;99302.06;;;4.79;52.14
13869;BME280;7004;48.206;16.402;2023-03-15T07:02:20;99307.28;;;5.17;51.43
13869;BME280;7004;48.206;16.402;2023-03-15T07:04:47;99300.97;;;5.02;50.95
13869;BME280;7004;48.206;16.402;2023-03-15T07:07:14;99310.19;;;4.92;50.71
13869;BME280;7004;48.206;16.402;2023-03-15T07:09:41;99325.41;;;5.03;51.04
13869;BME280;7004;48.206;16.402;2023-03-15T07:12:08;99335.28;;;5.34;50.05
13869;BME280;7004;48.206;16.402;2023-03-15T07:14:35;99343.31;;;5.12;50.03
13869;BME280;7004;48.206;16.402;2023-03-15T07:17:01;99345.38;;;5.24;50.10
13869;BME280;7004;48.206;16.402;2023-03-15T07:19:27;99357.06;;;5.17;50.63
13869;BME280;7004;48.206;16.402;2023-03-15T07:21:53;99363.72;;;5.24;50.37
13869;BME280;7004;48.206;16.402;2023-03-15T07:24:19;99368.56;;;5.51;49.57
13869;BME280;7004;48.206;16.402;2023-03-15T07:26:46;99368.72;;;5.29;49.65
13869;BME280;7004;48.206;16.402;2023-03-15T07:29:12;99370.59;;;5.44;49.42
13869;BME280;7004;48.206;16.402;2023-03-15T07:31:38;99371.75;;;5.39;48.82
13869;BME280;7004;48.206;16.402;2023-03-15T07:34:04;99375.41;;;4.98;49.28
13869;BME280;7004;48.206;16.402;2023-03-15T07:36:30;99382.25;;;5.39;48.48
13869;BME280;7004;48.206;16.402;2023-03-15T07:38:57;99396.06;;;5.23;49.33
13869;BME280;7004;48.206;16.402;2023-03-15T07:41:23;99402.78;;;5.48;48.90
13869;BME280;7004;48.206;16.402;2023-03-15T07:43:49;99393.72;;;5.55;48.74
13869;BME280;7004;48.206;16.402;2023-03-15T07:46:15;99405.84;;;5.75;48.29
13869;BME280;7004;48.206;16.402;2023-03-15T07:48:41;99399.28;;;5.66;48.00
13869;BME280;7004;48.206;16.402;2023-03-15T07:51:07;99401.06;;;5.47;48.14
13869;BME280;7004;48.206;16.402;2023-03-15T07:53:33;99404.06;;;5.58;47.66
13869;BME280;7004;48.206;16.402;2023-03-15T07:55:59;99419.94;;;5.91;47.75
13869;BME280;7004;48.206;16.402;2023-03-15T07:58:26;99409.03;;;5.82;47.68
13869;BME280;7004;48.206;16.402;2023-03-15T08:00:56;99411.78;;;6.15;47.23
13869;BME280;7004;48.206;16.402;2023-03-15T08:03:23;99407.50;;;6.47;46.54
13869;BME280;7004;48.206;16.402;2023-03-15T08:05:52;99409.00;;;6.86;47.31
13869;BME280;7004;48.206;16.402;2023-03-15T08:08:18;99403.16;;;6.30;46.36
13869;BME280;7004;48.206;16.402;2023-03-15T08:10:44;99407.00;;;6.23;46.73
13869;BME280;7004;48.206;16.402;2023-03-15T08:13:12;99410.22;;;6.46;45.78
13869;BME280;7004;48.206;16.402;2023-03-15T08:15:38;99420.66;;;5.95;46.40
13869;BME280;7004;48.206;16.402;2023-03-15T08:18:04;99418.25;;;6.43;45.42
13869;BME280;7004;48.206;16.402;2023-03-15T08:20:31;99414.84;;;6.91;45.05
13869;BME280;7004;48.206;16.402;2023-03-15T08:23:00;99418.88;;;7.30;44.40
13869;BME280;7004;48.206;16.402;2023-03-15T08:25:27;99416.56;;;7.72;44.19
13869;BME280;7004;48.206;16.402;2023-03-15T08:27:53;99418.38;;;7.71;42.83
13869;BME280;7004;48.206;16.402;2023-03-15T08:30:20;99420.56;;;7.79;43.04
13869;BME280;7004;48.206;16.402;2023-03-15T08:32:48;99429.38;;;8.54;42.00
13869;BME280;7004;48.206;16.402;2023-03-15T08:35:16;99431.25;;;7.44;44.13
13869;BME280;7004;48.206;16.402;2023-03-15T08:37:43;99435.66;;;7.12;44.11
13869;BME280;7004;48.206;16.402;2023-03-15T08:40:14;99455.34;;;7.20;43.35
13869;BME280;7004;48.206;16.402;2023-03-15T08:42:41;99452.84;;;7.02;43.35
13869;BME280;7004;48.206;16.402;2023-03-15T08:45:08;99455.25;;;7.22;43.94
13869;BME280;7004;48.206;16.402;2023-03-15T08:47:36;99445.28;;;8.22;42.06
13869;BME280;7004;48.206;16.402;2023-03-15T08:50:10;99443.91;;;7.69;42.34
13869;BME280;7004;48.206;16.402;2023-03-15T08:52:38;99457.25;;;7.01;43.63
13869;BME280;7004;48.206;16.402;2023-03-15T08:55:05;99467.56;;;7.85;42.92
13869;BME280;7004;48.206;16.402;2023-03-15T08:57:32;99444.25;;;8.55;40.71
13869;BME280;7004;48.206;16.402;2023-03-15T08:59:59;99465.97;;;7.66;41.93
13869;BME280;7004;48.206;16.402;2023-03-15T09:02:27;99469.69;;;8.40;40.18
13869;BME280;7004;48.206;16.402;2023-03-15T09:04:54;99452.75;;;8.89;39.48
13869;BME280;7004;48.206;16.402;2023-03-15T09:07:20;99460.38;;;9.36;38.94
13869;BME280;7004;48.206;16.402;2023-03-15T09:09:47;99458.63;;;9.64;38.31
13869;BME280;7004;48.206;16.402;2023-03-15T09:12:16;99468.59;;;9.03;39.16
13869;BME280;7004;48.206;16.402;2023-03-15T09:14:43;99481.59;;;8.31;39.20
13869;BME280;7004;48.206;16.402;2023-03-15T09:17:09;99479.38;;;8.09;38.54
13869;BME280;7004;48.206;16.402;2023-03-15T09:19:36;99474.53;;;8.02;39.16
13869;BME280;7004;48.206;16.402;2023-03-15T09:22:02;99480.28;;;8.08;39.21
13869;BME280;7004;48.206;16.402;2023-03-15T09:24:28;99490.13;;;8.21;39.64
13869;BME280;7004;48.206;16.402;2023-03-15T09:26:54;99490.50;;;8.45;38.48
13869;BME280;7004;48.206;16.402;2023-03-15T09:29:20;99506.50;;;8.86;38.14
13869;BME280;7004;48.206;16.402;2023-03-15T09:31:46;99500.38;;;8.25;39.13
13869;BME280;7004;48.206;16.402;2023-03-15T09:34:12;99501.25;;;8.10;38.81
13869;BME280;7004;48.206;16.402;2023-03-15T09:36:38;99492.75;;;8.81;38.66
13869;BME280;7004;48.206;16.402;2023-03-15T09:39:05;99503.47;;;8.18;38.63
13869;BME280;7004;48.206;16.402;2023-03-15T09:41:48;99507.66;;;8.36;38.92
13869;BME280;7004;48.206;16.402;2023-03-15T09:44:46;99511.63;;;7.97;39.21
13869;BME280;7004;48.206;16.402;2023-03-15T09:47:27;99514.84;;;8.18;37.74
13869;BME280;7004;48.206;16.402;2023-03-15T09:50:18;99519.34;;;8.00;37.68
13869;BME280;7004;48.206;16.402;2023-03-15T09:52:59;99510.78;;;7.97;35.93
13869;BME280;7004;48.206;16.402;2023-03-15T09:55:28;99530.47;;;7.90;35.77
13869;BME280;7004;48.206;16.402;2023-03-15T09:58:00;99513.22;;;8.16;35.82
13869;BME280;7004;48.206;16.402;2023-03-15T10:00:50;99521.72;;;7.57;36.61
13869;BME280;7004;48.206;16.402;2023-03-15T10:03:46;99502.44;;;8.20;37.70
13869;BME280;7004;48.206;16.402;2023-03-15T10:06:22;99516.66;;;7.86;36.65
13869;BME280;7004;48.206;16.402;2023-03-15T10:09:00;99512.72;;;7.77;36.78
13869;BME280;7004;48.206;16.402;2023-03-15T10:11:55;99514.84;;;8.64;35.63
13869;BME280;7004;48.206;16.402;2023-03-15T10:17:12;99503.19;;;10.64;32.50
13869;BME280;7004;48.206;16.402;2023-03-15T10:19:48;99520.44;;;7.96;34.83
13869;BME280;7004;48.206;16.402;2023-03-15T10:25:20;99510.88;;;9.16;34.32
13869;BME280;7004;48.206;16.402;2023-03-15T10:30:51;99495.81;;;9.32;34.79
13869;BME280;7004;48.206;16.402;2023-03-15T10:33:41;99515.94;;;8.90;35.01
13869;BME280;7004;48.206;16.402;2023-03-15T10:36:18;99498.75;;;8.39;35.66
13869;BME280;7004;48.206;16.402;2023-03-15T10:38:46;99506.03;;;7.87;37.07
13869;BME280;7004;48.206;16.402;2023-03-15T10:41:27;99501.03;;;8.75;37.61
13869;BME280;7004;48.206;16.402;2023-03-15T10:44:03;99496.47;;;9.50;35.02
13869;BME280;7004;48.206;16.402;2023-03-15T10:46:30;99491.16;;;8.02;36.76
13869;BME280;7004;48.206;16.402;2023-03-15T10:49:06;99493.25;;;9.31;35.31
13869;BME280;7004;48.206;16.402;2023-03-15T10:51:47;99497.31;;;8.93;35.29
13869;BME280;7004;48.206;16.402;2023-03-15T10:54:21;99492.81;;;9.24;35.39
13869;BME280;7004;48.206;16.402;2023-03-15T10:57:13;99490.41;;;10.17;34.55
13869;BME280;7004;48.206;16.402;2023-03-15T10:59:57;99494.16;;;9.73;32.86
13869;BME280;7004;48.206;16.402;2023-03-15T11:02:24;99484.09;;;9.65;32.20
13869;BME280;7004;48.206;16.402;2023-03-15T11:07:34;99494.91;;;9.75;32.40
13869;BME280;7004;48.206;16.402;2023-03-15T11:10:04;99495.91;;;9.16;33.03
13869;BME280;7004;48.206;16.402;2023-03-15T11:12:33;99489.88;;;8.56;34.35
13869;BME280;7004;48.206;16.402;2023-03-15T11:15:14;99485.22;;;10.02;33.17
13869;BME280;7004;48.206;16.402;2023-03-15T11:17:45;99492.13;;;9.21;32.94
13869;BME280;7004;48.206;16.402;2023-03-15T11:20:35;99499.53;;;9.57;33.36
13869;BME280;7004;48.206;16.402;2023-03-15T11:23:23;99489.84;;;9.57;33.41
13869;BME280;7004;48.206;16.402;2023-03-15T11:25:52;99482.16;;;10.09;33.71
13869;BME280;7004;48.206;16.402;2023-03-15T11:28:26;99493.16;;;9.47;33.80
13869;BME280;7004;48.206;16.402;2023-03-15T11:30:57;99489.88;;;9.43;33.44
13869;BME280;7004;48.206;16.402;2023-03-15T11:33:50;99485.53;;;8.99;33.30
13869;BME280;7004;48.206;16.402;2023-03-15T11:36:22;99499.56;;;9.43;33.85
13869;BME280;7004;48.206;16.402;2023-03-15T11:38:50;99491.88;;;9.11;34.19
13869;BME280;7004;48.206;16.402;2023-03-15T11:41:47;99502.38;;;9.54;34.21
13869;BME280;7004;48.206;16.402;2023-03-15T11:44:32;99499.75;;;8.96;34.46
13869;BME280;7004;48.206;16.402;2023-03-15T11:47:29;99507.78;;;9.52;34.32
13869;BME280;7004;48.206;16.402;2023-03-15T11:49:59;99502.56;;;9.51;33.41
13869;BME280;7004;48.206;16.402;2023-03-15T11:52:27;99501.78;;;9.77;33.59
13869;BME280;7004;48.206;16.402;2023-03-15T11:54:57;99510.13;;;9.43;34.09
13869;BME280;7004;48.206;16.402;2023-03-15T11:57:46;99505.28;;;8.78;34.66
13869;BME280;7004;48.206;16.402;2023-03-15T12:03:30;99508.63;;;9.24;34.18
13869;BME280;7004;48.206;16.402;2023-03-15T12:08:53;99494.88;;;10.16;32.50
13869;BME280;7004;48.206;16.402;2023-03-15T12:16:44;99501.16;;;8.88;32.76
13869;BME280;7004;48.206;16.402;2023-03-15T12:19:19;99498.91;;;9.25;32.75
13869;BME280;7004;48.206;16.402;2023-03-15T12:21:50;99493.25;;;9.02;32.01
13869;BME280;7004;48.206;16.402;2023-03-15T12:24:36;99482.06;;;8.99;31.86
13869;BME280;7004;48.206;16.402;2023-03-15T12:27:19;99490.91;;;9.55;31.65
13869;BME280;7004;48.206;16.402;2023-03-15T12:29:47;99481.31;;;9.11;31.81
13869;BME280;7004;48.206;16.402;2023-03-15T12:32:19;99484.41;;;9.17;32.80
13869;BME280;7004;48.206;16.402;2023-03-15T12:34:53;99482.75;;;9.72;32.76
13869;BME280;7004;48.206;16.402;2023-03-15T12:37:45;99474.78;;;10.14;37.65
13869;BME280;7004;48.206;16.402;2023-03-15T12:56:43;99470.22;;;11.08;31.24
13869;BME280;7004;48.206;16.402;2023-03-15T12:59:32;99473.97;;;12.52;32.32
13869;BME280;7004;48.206;16.402;2023-03-15T13:02:02;99465.50;;;12.35;29.05
13869;BME280;7004;48.206;16.402;2023-03-15T13:04:33;99472.00;;;12.89;28.85
13869;BME280;7004;48.206;16.402;2023-03-15T13:07:23;99474.38;;;12.58;29.15
13869;BME280;7004;48.206;16.402;2023-03-15T13:16:22;99466.19;;;12.26;27.91
13869;BME280;7004;48.206;16.402;2023-03-15T13:22:06;99464.00;;;12.20;30.15
13869;BME280;7004;48.206;16.402;2023-03-15T13:28:10;99461.13;;;11.99;28.18
13869;BME280;7004;48.206;16.402;2023-03-15T13:30:51;99475.19;;;11.00;28.94
13869;BME280;7004;48.206;16.402;2023-03-15T13:33:29;99478.41;;;10.53;28.88
13869;BME280;7004;48.206;16.402;2023-03-15T13:36:15;99478.47;;;10.11;29.78
13869;BME280;7004;48.206;16.402;2023-03-15T13:38:50;99474.31;;;10.61;29.30
13869;BME280;7004;48.206;16.402;2023-03-15T13:41:29;99468.25;;;10.46;29.20
13869;BME280;7004;48.206;16.402;2023-03-15T13:43:59;99475.78;;;10.25;29.12
13869;BME280;7004;48.206;16.402;2023-03-15T13:46:29;99472.53;;;10.87;29.25
13869;BME280;7004;48.206;16.402;2023-03-15T13:48:56;99486.81;;;10.98;28.48
13869;BME280;7004;48.206;16.402;2023-03-15T13:51:34;99472.81;;;10.17;28.94
13869;BME280;7004;48.206;16.402;2023-03-15T13:54:24;99482.13;;;10.63;28.40
13869;BME280;7004;48.206;16.402;2023-03-15T13:56:56;99478.59;;;10.37;28.93
13869;BME280;7004;48.206;16.402;2023-03-15T13:59:50;99477.03;;;10.20;28.83
13869;BME280;7004;48.206;16.402;2023-03-15T14:02:23;99480.19;;;10.12;28.97
13869;BME280;7004;48.206;16.402;2023-03-15T14:05:05;99489.91;;;10.39;29.06
13869;BME280;7004;48.206;16.402;2023-03-15T14:07:41;99475.59;;;10.94;28.79
13869;BME280;7004;48.206;16.402;2023-03-15T14:10:27;99481.94;;;9.99;29.65
13869;BME280;7004;48.206;16.402;2023-03-15T14:12:55;99477.25;;;10.57;28.79
13869;BME280;7004;48.206;16.402;2023-03-15T14:15:40;99473.59;;;10.72;29.06
13869;BME280;7004;48.206;16.402;2023-03-15T14:20:51;99485.91;;;10.46;28.76
13869;BME280;7004;48.206;16.402;2023-03-15T14:23:23;99483.28;;;9.77;28.90
13869;BME280;7004;48.206;16.402;2023-03-15T14:28:37;99487.78;;;10.17;28.44
13869;BME280;7004;48.206;16.402;2023-03-15T14:31:03;99488.38;;;10.62;28.24
13869;BME280;7004;48.206;16.402;2023-03-15T14:33:39;99485.72;;;10.62;28.25
13869;BME280;7004;48.206;16.402;2023-03-15T14:36:31;99482.28;;;10.07;28.92
13869;BME280;7004;48.206;16.402;2023-03-15T14:38:58;99492.13;;;10.18;28.52
13869;BME280;7004;48.206;16.402;2023-03-15T14:43:56;99484.88;;;10.48;28.52